sensor_id;sensor_type;location;lat;lon;timestamp;P1;durP1;ratioP1;P2;durP2;ratioP2
46415;SDS011;32620;51.704;7.822;2023-10-09T00:00:12;13.98;;;8.55;;
46415;SDS011;32620;51.704;7.822;2023-10-09T00:02:58;14.80;;;8.07;;
46415;SDS011;32620;51.704;7.822;2023-10-09T00:05:27;14.50;;;8.07;;
46415;SDS011;32620;51.704;7.822;2023-10-09T00:08:03;17.77;;;8.82;;
46415;SDS011;32620;51.704;7.822;2023-10-09T00:10:29;13.20;;;7.85;;
46415;SDS011;32620;51.704;7.822;2023-10-09T00:13:10;13.45;;;7.63;;
46415;SDS011;32620;51.704;7.822;2023-10-09T00:15:35;16.73;;;8.30;;
46415;SDS011;32620;51.704;7.822;2023-10-09T00:18:01;14.77;;;8.13;;
46415;SDS011;32620;51.704;7.822;2023-10-09T00:20:29;14.45;;;8.25;;
46415;SDS011;32620;51.704;7.822;2023-10-09T00:22:55;18.65;;;9.98;;
46415;SDS011;32620;51.704;7.822;2023-10-09T00:25:21;18.35;;;9.60;;
46415;SDS011;32620;51.704;7.822;2023-10-09T00:27:49;18.90;;;9.20;;
46415;SDS011;32620;51.704;7.822;2023-10-09T00:30:15;19.35;;;11.07;;
46415;SDS011;32620;51.704;7.822;2023-10-09T00:32:43;22.58;;;11.45;;
46415;SDS011;32620;51.704;7.822;2023-10-09T00:35:26;24.77;;;12.30;;
46415;SDS011;32620;51.704;7.822;2023-10-09T00:38:12;27.40;;;13.13;;
46415;SDS011;32620;51.704;7.822;2023-10-09T00:40:48;26.27;;;12.63;;
46415;SDS011;32620;51.704;7.822;2023-10-09T00:43:35;24.50;;;12.40;;
46415;SDS011;32620;51.704;7.822;2023-10-09T00:46:02;21.80;;;11.25;;
46415;SDS011;32620;51.704;7.822;2023-10-09T00:48:33;26.27;;;12.32;;
46415;SDS011;32620;51.704;7.822;2023-10-09T00:51:04;24.70;;;11.57;;
46415;SDS011;32620;51.704;7.822;2023-10-09T00:53:40;22.45;;;11.75;;
46415;SDS011;32620;51.704;7.822;2023-10-09T00:56:07;31.50;;;14.77;;
46415;SDS011;32620;51.704;7.822;2023-10-09T00:58:44;26.83;;;12.75;;
46415;SDS011;32620;51.704;7.822;2023-10-09T01:01:12;30.58;;;14.30;;
46415;SDS011;32620;51.704;7.822;2023-10-09T01:03:41;28.92;;;14.13;;
46415;SDS011;32620;51.704;7.822;2023-10-09T01:06:09;33.15;;;16.95;;
46415;SDS011;32620;51.704;7.822;2023-10-09T01:08:48;36.40;;;18.08;;
46415;SDS011;32620;51.704;7.822;2023-10-09T01:11:21;42.40;;;18.55;;
46415;SDS011;32620;51.704;7.822;2023-10-09T01:13:48;40.47;;;20.38;;
46415;SDS011;32620;51.704;7.822;2023-10-09T01:16:27;38.28;;;19.20;;
46415;SDS011;32620;51.704;7.822;2023-10-09T01:18:56;49.17;;;21.45;;
46415;SDS011;32620;51.704;7.822;2023-10-09T01:21:23;61.38;;;25.60;;
46415;SDS011;32620;51.704;7.822;2023-10-09T01:23:50;58.00;;;25.95;;
46415;SDS011;32620;51.704;7.822;2023-10-09T01:26:37;54.85;;;23.70;;
46415;SDS011;32620;51.704;7.822;2023-10-09T01:29:09;57.17;;;26.00;;
46415;SDS011;32620;51.704;7.822;2023-10-09T01:31:39;60.92;;;25.98;;
46415;SDS011;32620;51.704;7.822;2023-10-09T01:34:12;58.40;;;26.63;;
46415;SDS011;32620;51.704;7.822;2023-10-09T01:36:37;53.90;;;24.00;;
46415;SDS011;32620;51.704;7.822;2023-10-09T01:39:04;57.30;;;24.45;;
46415;SDS011;32620;51.704;7.822;2023-10-09T01:41:46;49.10;;;22.23;;
46415;SDS011;32620;51.704;7.822;2023-10-09T01:44:14;47.63;;;21.27;;
46415;SDS011;32620;51.704;7.822;2023-10-09T01:46:41;56.15;;;24.52;;
46415;SDS011;32620;51.704;7.822;2023-10-09T01:49:07;55.38;;;24.70;;
46415;SDS011;32620;51.704;7.822;2023-10-09T01:51:35;57.38;;;25.55;;
46415;SDS011;32620;51.704;7.822;2023-10-09T01:54:03;64.50;;;26.80;;
46415;SDS011;32620;51.704;7.822;2023-10-09T01:56:29;53.22;;;26.45;;
46415;SDS011;32620;51.704;7.822;2023-10-09T01:58:54;57.25;;;26.23;;
46415;SDS011;32620;51.704;7.822;2023-10-09T02:01:22;56.88;;;27.05;;
46415;SDS011;32620;51.704;7.822;2023-10-09T02:03:48;59.10;;;27.48;;
46415;SDS011;32620;51.704;7.822;2023-10-09T02:06:16;64.22;;;27.92;;
46415;SDS011;32620;51.704;7.822;2023-10-09T02:08:51;47.67;;;25.80;;
46415;SDS011;32620;51.704;7.822;2023-10-09T02:11:18;63.13;;;28.30;;
46415;SDS011;32620;51.704;7.822;2023-10-09T02:14:03;56.45;;;27.75;;
46415;SDS011;32620;51.704;7.822;2023-10-09T02:16:40;55.60;;;27.73;;
46415;SDS011;32620;51.704;7.822;2023-10-09T02:19:07;57.60;;;27.45;;
46415;SDS011;32620;51.704;7.822;2023-10-09T02:21:52;64.25;;;28.77;;
46415;SDS011;32620;51.704;7.822;2023-10-09T02:24:18;65.70;;;30.77;;
46415;SDS011;32620;51.704;7.822;2023-10-09T02:27:04;66.25;;;31.48;;
46415;SDS011;32620;51.704;7.822;2023-10-09T02:29:32;68.43;;;31.85;;
46415;SDS011;32620;51.704;7.822;2023-10-09T02:32:00;67.82;;;31.55;;
46415;SDS011;32620;51.704;7.822;2023-10-09T02:34:38;67.63;;;31.02;;
46415;SDS011;32620;51.704;7.822;2023-10-09T02:37:04;67.93;;;31.95;;
46415;SDS011;32620;51.704;7.822;2023-10-09T02:39:31;63.95;;;33.05;;
46415;SDS011;32620;51.704;7.822;2023-10-09T02:42:08;70.97;;;34.00;;
46415;SDS011;32620;51.704;7.822;2023-10-09T02:44:50;68.88;;;33.95;;
46415;SDS011;32620;51.704;7.822;2023-10-09T02:47:17;67.30;;;34.45;;
46415;SDS011;32620;51.704;7.822;2023-10-09T02:49:55;62.85;;;31.27;;
46415;SDS011;32620;51.704;7.822;2023-10-09T02:52:36;62.70;;;31.90;;
46415;SDS011;32620;51.704;7.822;2023-10-09T02:55:05;60.72;;;31.63;;
46415;SDS011;32620;51.704;7.822;2023-10-09T02:57:38;69.53;;;33.75;;
46415;SDS011;32620;51.704;7.822;2023-10-09T03:00:07;65.80;;;34.40;;
46415;SDS011;32620;51.704;7.822;2023-10-09T03:02:34;74.43;;;34.30;;
46415;SDS011;32620;51.704;7.822;2023-10-09T03:05:05;63.22;;;32.75;;
46415;SDS011;32620;51.704;7.822;2023-10-09T03:07:31;60.83;;;31.95;;
46415;SDS011;32620;51.704;7.822;2023-10-09T03:09:59;62.25;;;30.02;;
46415;SDS011;32620;51.704;7.822;2023-10-09T03:12:24;59.38;;;29.92;;
46415;SDS011;32620;51.704;7.822;2023-10-09T03:14:52;48.83;;;27.17;;
46415;SDS011;32620;51.704;7.822;2023-10-09T03:17:27;51.17;;;28.17;;
46415;SDS011;32620;51.704;7.822;2023-10-09T03:19:52;55.97;;;28.15;;
46415;SDS011;32620;51.704;7.822;2023-10-09T03:22:18;60.78;;;29.20;;
46415;SDS011;32620;51.704;7.822;2023-10-09T03:24:44;51.67;;;27.88;;
46415;SDS011;32620;51.704;7.822;2023-10-09T03:27:09;55.67;;;29.13;;
46415;SDS011;32620;51.704;7.822;2023-10-09T03:29:36;54.20;;;27.17;;
46415;SDS011;32620;51.704;7.822;2023-10-09T03:32:02;48.95;;;26.38;;
46415;SDS011;32620;51.704;7.822;2023-10-09T03:34:28;49.72;;;27.38;;
46415;SDS011;32620;51.704;7.822;2023-10-09T03:36:55;50.58;;;26.00;;
46415;SDS011;32620;51.704;7.822;2023-10-09T03:39:29;51.15;;;28.05;;
46415;SDS011;32620;51.704;7.822;2023-10-09T03:41:59;51.40;;;27.60;;
46415;SDS011;32620;51.704;7.822;2023-10-09T03:44:29;43.40;;;25.13;;
46415;SDS011;32620;51.704;7.822;2023-10-09T03:46:58;50.65;;;27.10;;
46415;SDS011;32620;51.704;7.822;2023-10-09T03:49:24;49.30;;;27.00;;
46415;SDS011;32620;51.704;7.822;2023-10-09T03:51:50;47.95;;;25.73;;
46415;SDS011;32620;51.704;7.822;2023-10-09T03:54:16;51.67;;;28.50;;
46415;SDS011;32620;51.704;7.822;2023-10-09T03:56:45;54.67;;;25.95;;
46415;SDS011;32620;51.704;7.822;2023-10-09T03:59:16;50.08;;;26.52;;
46415;SDS011;32620;51.704;7.822;2023-10-09T04:01:44;50.88;;;27.48;;
46415;SDS011;32620;51.704;7.822;2023-10-09T04:04:11;49.65;;;27.25;;
46415;SDS011;32620;51.704;7.822;2023-10-09T04:06:39;50.47;;;27.80;;
46415;SDS011;32620;51.704;7.822;2023-10-09T04:09:06;54.47;;;27.98;;
46415;SDS011;32620;51.704;7.822;2023-10-09T04:11:52;48.97;;;24.85;;
46415;SDS011;32620;51.704;7.822;2023-10-09T04:14:39;45.45;;;24.40;;
46415;SDS011;32620;51.704;7.822;2023-10-09T04:17:15;41.33;;;23.15;;
46415;SDS011;32620;51.704;7.822;2023-10-09T04:20:00;43.75;;;23.48;;
46415;SDS011;32620;51.704;7.822;2023-10-09T04:22:46;46.60;;;24.73;;
46415;SDS011;32620;51.704;7.822;2023-10-09T04:25:32;42.17;;;23.30;;
46415;SDS011;32620;51.704;7.822;2023-10-09T04:28:16;43.22;;;22.63;;
46415;SDS011;32620;51.704;7.822;2023-10-09T04:30:44;39.53;;;21.92;;
46415;SDS011;32620;51.704;7.822;2023-10-09T04:33:18;40.13;;;21.35;;
46415;SDS011;32620;51.704;7.822;2023-10-09T04:36:05;35.08;;;20.35;;
46415;SDS011;32620;51.704;7.822;2023-10-09T04:38:47;33.33;;;20.08;;
46415;SDS011;32620;51.704;7.822;2023-10-09T04:41:34;37.45;;;19.80;;
46415;SDS011;32620;51.704;7.822;2023-10-09T04:44:17;38.40;;;19.50;;
46415;SDS011;32620;51.704;7.822;2023-10-09T04:46:44;30.02;;;18.08;;
46415;SDS011;32620;51.704;7.822;2023-10-09T04:49:30;32.83;;;19.05;;
46415;SDS011;32620;51.704;7.822;2023-10-09T04:52:10;34.05;;;19.02;;
46415;SDS011;32620;51.704;7.822;2023-10-09T04:54:45;30.40;;;18.13;;
46415;SDS011;32620;51.704;7.822;2023-10-09T04:57:30;28.00;;;18.17;;
46415;SDS011;32620;51.704;7.822;2023-10-09T05:00:03;28.50;;;17.17;;
46415;SDS011;32620;51.704;7.822;2023-10-09T05:02:47;31.73;;;18.13;;
46415;SDS011;32620;51.704;7.822;2023-10-09T05:05:19;34.80;;;18.05;;
46415;SDS011;32620;51.704;7.822;2023-10-09T05:08:06;33.58;;;18.65;;
46415;SDS011;32620;51.704;7.822;2023-10-09T05:10:47;36.13;;;17.50;;
46415;SDS011;32620;51.704;7.822;2023-10-09T05:13:33;28.88;;;17.40;;
46415;SDS011;32620;51.704;7.822;2023-10-09T05:16:16;30.83;;;18.27;;
46415;SDS011;32620;51.704;7.822;2023-10-09T05:18:45;31.70;;;17.50;;
46415;SDS011;32620;51.704;7.822;2023-10-09T05:21:21;27.48;;;16.52;;
46415;SDS011;32620;51.704;7.822;2023-10-09T05:23:59;35.40;;;17.58;;
46415;SDS011;32620;51.704;7.822;2023-10-09T05:26:42;32.83;;;17.27;;
46415;SDS011;32620;51.704;7.822;2023-10-09T05:29:12;34.40;;;18.77;;
46415;SDS011;32620;51.704;7.822;2023-10-09T05:32:01;31.85;;;16.50;;
46415;SDS011;32620;51.704;7.822;2023-10-09T05:34:41;29.95;;;16.75;;
46415;SDS011;32620;51.704;7.822;2023-10-09T05:37:29;36.00;;;18.23;;
46415;SDS011;32620;51.704;7.822;2023-10-09T05:40:00;30.95;;;18.85;;
46415;SDS011;32620;51.704;7.822;2023-10-09T05:42:30;30.77;;;18.90;;
46415;SDS011;32620;51.704;7.822;2023-10-09T05:45:17;33.50;;;18.08;;
46415;SDS011;32620;51.704;7.822;2023-10-09T05:47:55;35.97;;;18.33;;
46415;SDS011;32620;51.704;7.822;2023-10-09T05:50:30;36.55;;;19.20;;
46415;SDS011;32620;51.704;7.822;2023-10-09T05:52:59;33.08;;;18.38;;
46415;SDS011;32620;51.704;7.822;2023-10-09T05:55:38;35.65;;;18.55;;
46415;SDS011;32620;51.704;7.822;2023-10-09T05:58:23;35.13;;;19.23;;
46415;SDS011;32620;51.704;7.822;2023-10-09T06:01:09;31.38;;;18.45;;
46415;SDS011;32620;51.704;7.822;2023-10-09T06:03:54;34.22;;;19.13;;
46415;SDS011;32620;51.704;7.822;2023-10-09T06:06:21;31.17;;;17.73;;
46415;SDS011;32620;51.704;7.822;2023-10-09T06:09:06;32.90;;;18.98;;
46415;SDS011;32620;51.704;7.822;2023-10-09T06:11:52;41.53;;;19.55;;
46415;SDS011;32620;51.704;7.822;2023-10-09T06:14:21;31.75;;;18.17;;
46415;SDS011;32620;51.704;7.822;2023-10-09T06:16:58;33.03;;;18.25;;
46415;SDS011;32620;51.704;7.822;2023-10-09T06:19:25;34.15;;;18.33;;
46415;SDS011;32620;51.704;7.822;2023-10-09T06:21:52;33.20;;;18.90;;
46415;SDS011;32620;51.704;7.822;2023-10-09T06:24:39;32.03;;;18.65;;
46415;SDS011;32620;51.704;7.822;2023-10-09T06:27:07;32.45;;;18.70;;
46415;SDS011;32620;51.704;7.822;2023-10-09T06:29:40;35.00;;;20.48;;
46415;SDS011;32620;51.704;7.822;2023-10-09T06:32:21;33.42;;;18.75;;
46415;SDS011;32620;51.704;7.822;2023-10-09T06:35:02;33.25;;;18.55;;
46415;SDS011;32620;51.704;7.822;2023-10-09T06:37:47;34.72;;;19.55;;
46415;SDS011;32620;51.704;7.822;2023-10-09T06:40:36;33.80;;;19.35;;
46415;SDS011;32620;51.704;7.822;2023-10-09T06:43:30;36.53;;;19.25;;
46415;SDS011;32620;51.704;7.822;2023-10-09T06:45:57;40.25;;;19.83;;
46415;SDS011;32620;51.704;7.822;2023-10-09T06:48:23;31.80;;;18.40;;
46415;SDS011;32620;51.704;7.822;2023-10-09T06:51:07;33.37;;;19.07;;
46415;SDS011;32620;51.704;7.822;2023-10-09T06:53:52;35.40;;;19.55;;
46415;SDS011;32620;51.704;7.822;2023-10-09T06:56:30;35.33;;;19.35;;
46415;SDS011;32620;51.704;7.822;2023-10-09T06:58:59;39.75;;;20.35;;
46415;SDS011;32620;51.704;7.822;2023-10-09T07:01:30;32.92;;;18.85;;
46415;SDS011;32620;51.704;7.822;2023-10-09T07:04:14;39.45;;;19.88;;
46415;SDS011;32620;51.704;7.822;2023-10-09T07:06:45;33.33;;;19.95;;
46415;SDS011;32620;51.704;7.822;2023-10-09T07:09:13;33.85;;;19.13;;
46415;SDS011;32620;51.704;7.822;2023-10-09T07:11:42;37.60;;;19.08;;
46415;SDS011;32620;51.704;7.822;2023-10-09T07:14:21;29.50;;;17.00;;
46415;SDS011;32620;51.704;7.822;2023-10-09T07:17:06;30.63;;;16.92;;
46415;SDS011;32620;51.704;7.822;2023-10-09T07:19:53;33.22;;;17.88;;
46415;SDS011;32620;51.704;7.822;2023-10-09T07:22:22;30.98;;;17.20;;
46415;SDS011;32620;51.704;7.822;2023-10-09T07:24:59;31.42;;;16.23;;
46415;SDS011;32620;51.704;7.822;2023-10-09T07:27:39;30.45;;;17.25;;
46415;SDS011;32620;51.704;7.822;2023-10-09T07:30:09;36.95;;;17.35;;
46415;SDS011;32620;51.704;7.822;2023-10-09T07:32:57;33.58;;;17.88;;
46415;SDS011;32620;51.704;7.822;2023-10-09T07:35:51;32.03;;;16.77;;
46415;SDS011;32620;51.704;7.822;2023-10-09T07:38:20;33.53;;;17.85;;
46415;SDS011;32620;51.704;7.822;2023-10-09T07:40:48;33.25;;;18.33;;
46415;SDS011;32620;51.704;7.822;2023-10-09T07:43:20;29.77;;;18.02;;
46415;SDS011;32620;51.704;7.822;2023-10-09T07:45:51;32.67;;;17.38;;
46415;SDS011;32620;51.704;7.822;2023-10-09T07:48:36;31.00;;;16.88;;
46415;SDS011;32620;51.704;7.822;2023-10-09T07:51:13;28.38;;;16.95;;
46415;SDS011;32620;51.704;7.822;2023-10-09T07:53:39;36.38;;;17.70;;
46415;SDS011;32620;51.704;7.822;2023-10-09T07:56:09;30.73;;;17.30;;
46415;SDS011;32620;51.704;7.822;2023-10-09T07:58:38;30.92;;;18.25;;
46415;SDS011;32620;51.704;7.822;2023-10-09T08:01:12;32.88;;;17.63;;
46415;SDS011;32620;51.704;7.822;2023-10-09T08:03:47;29.77;;;18.67;;
46415;SDS011;32620;51.704;7.822;2023-10-09T08:06:22;29.50;;;18.02;;
46415;SDS011;32620;51.704;7.822;2023-10-09T08:09:04;37.50;;;18.25;;
46415;SDS011;32620;51.704;7.822;2023-10-09T08:11:49;32.53;;;18.02;;
46415;SDS011;32620;51.704;7.822;2023-10-09T08:14:35;33.40;;;19.13;;
46415;SDS011;32620;51.704;7.822;2023-10-09T08:17:13;30.90;;;18.90;;
46415;SDS011;32620;51.704;7.822;2023-10-09T08:19:47;32.63;;;18.70;;
46415;SDS011;32620;51.704;7.822;2023-10-09T08:22:24;29.10;;;18.48;;
46415;SDS011;32620;51.704;7.822;2023-10-09T08:24:53;35.13;;;19.27;;
46415;SDS011;32620;51.704;7.822;2023-10-09T08:27:23;35.58;;;20.70;;
46415;SDS011;32620;51.704;7.822;2023-10-09T08:30:08;32.63;;;19.77;;
46415;SDS011;32620;51.704;7.822;2023-10-09T08:32:53;30.95;;;19.00;;
46415;SDS011;32620;51.704;7.822;2023-10-09T08:35:28;37.10;;;19.67;;
46415;SDS011;32620;51.704;7.822;2023-10-09T08:37:56;32.45;;;19.63;;
46415;SDS011;32620;51.704;7.822;2023-10-09T08:40:29;31.83;;;18.92;;
46415;SDS011;32620;51.704;7.822;2023-10-09T08:42:58;35.15;;;19.63;;
46415;SDS011;32620;51.704;7.822;2023-10-09T08:45:34;40.45;;;20.25;;
46415;SDS011;32620;51.704;7.822;2023-10-09T08:48:04;35.00;;;19.58;;
46415;SDS011;32620;51.704;7.822;2023-10-09T08:50:32;36.05;;;20.25;;
46415;SDS011;32620;51.704;7.822;2023-10-09T08:52:59;35.08;;;20.23;;
46415;SDS011;32620;51.704;7.822;2023-10-09T08:55:28;35.35;;;20.58;;
46415;SDS011;32620;51.704;7.822;2023-10-09T08:57:53;31.85;;;20.70;;
46415;SDS011;32620;51.704;7.822;2023-10-09T09:00:22;35.78;;;20.83;;
46415;SDS011;32620;51.704;7.822;2023-10-09T09:02:50;30.30;;;20.42;;
46415;SDS011;32620;51.704;7.822;2023-10-09T09:05:17;33.75;;;20.67;;
46415;SDS011;32620;51.704;7.822;2023-10-09T09:07:46;35.33;;;20.52;;
46415;SDS011;32620;51.704;7.822;2023-10-09T09:10:13;31.45;;;19.92;;
46415;SDS011;32620;51.704;7.822;2023-10-09T09:12:47;34.28;;;19.55;;
46415;SDS011;32620;51.704;7.822;2023-10-09T09:15:25;35.85;;;20.23;;
46415;SDS011;32620;51.704;7.822;2023-10-09T09:17:52;36.17;;;20.30;;
46415;SDS011;32620;51.704;7.822;2023-10-09T09:20:31;32.38;;;20.10;;
46415;SDS011;32620;51.704;7.822;2023-10-09T09:23:01;35.75;;;19.85;;
46415;SDS011;32620;51.704;7.822;2023-10-09T09:25:45;34.15;;;21.65;;
46415;SDS011;32620;51.704;7.822;2023-10-09T09:28:22;40.05;;;20.65;;
46415;SDS011;32620;51.704;7.822;2023-10-09T09:30:51;38.00;;;20.58;;
46415;SDS011;32620;51.704;7.822;2023-10-09T09:33:20;31.75;;;19.55;;
46415;SDS011;32620;51.704;7.822;2023-10-09T09:35:59;32.38;;;19.45;;
46415;SDS011;32620;51.704;7.822;2023-10-09T09:38:30;33.25;;;19.60;;
46415;SDS011;32620;51.704;7.822;2023-10-09T09:41:07;34.90;;;19.40;;
46415;SDS011;32620;51.704;7.822;2023-10-09T09:43:33;35.60;;;19.10;;
46415;SDS011;32620;51.704;7.822;2023-10-09T09:46:01;35.30;;;18.73;;
46415;SDS011;32620;51.704;7.822;2023-10-09T09:48:33;36.63;;;19.20;;
46415;SDS011;32620;51.704;7.822;2023-10-09T09:51:04;33.13;;;18.15;;
46415;SDS011;32620;51.704;7.822;2023-10-09T09:53:33;29.10;;;18.13;;
46415;SDS011;32620;51.704;7.822;2023-10-09T09:55:59;30.63;;;17.05;;
46415;SDS011;32620;51.704;7.822;2023-10-09T09:58:27;30.13;;;17.95;;
46415;SDS011;32620;51.704;7.822;2023-10-09T10:01:00;30.65;;;17.52;;
46415;SDS011;32620;51.704;7.822;2023-10-09T10:03:41;28.65;;;16.98;;
46415;SDS011;32620;51.704;7.822;2023-10-09T10:06:10;30.52;;;17.38;;
46415;SDS011;32620;51.704;7.822;2023-10-09T10:08:37;31.48;;;17.13;;
46415;SDS011;32620;51.704;7.822;2023-10-09T10:11:07;28.98;;;17.27;;
46415;SDS011;32620;51.704;7.822;2023-10-09T10:16:16;27.77;;;16.60;;
46415;SDS011;32620;51.704;7.822;2023-10-09T10:18:56;30.88;;;17.95;;
46415;SDS011;32620;51.704;7.822;2023-10-09T10:21:50;31.60;;;17.67;;
46415;SDS011;32620;51.704;7.822;2023-10-09T10:30:29;31.40;;;18.23;;
46415;SDS011;32620;51.704;7.822;2023-10-09T10:32:52;29.85;;;18.10;;
46415;SDS011;32620;51.704;7.822;2023-10-09T10:35:19;28.75;;;17.52;;
46415;SDS011;32620;51.704;7.822;2023-10-09T10:37:57;32.97;;;17.73;;
46415;SDS011;32620;51.704;7.822;2023-10-09T10:40:43;29.30;;;17.10;;
46415;SDS011;32620;51.704;7.822;2023-10-09T10:43:22;27.98;;;17.50;;
46415;SDS011;32620;51.704;7.822;2023-10-09T10:46:03;29.02;;;18.35;;
46415;SDS011;32620;51.704;7.822;2023-10-09T10:48:34;33.67;;;18.60;;
46415;SDS011;32620;51.704;7.822;2023-10-09T10:51:03;30.42;;;18.13;;
46415;SDS011;32620;51.704;7.822;2023-10-09T10:53:31;31.73;;;17.85;;
46415;SDS011;32620;51.704;7.822;2023-10-09T10:56:12;27.27;;;17.02;;
46415;SDS011;32620;51.704;7.822;2023-10-09T10:58:42;29.88;;;17.58;;
46415;SDS011;32620;51.704;7.822;2023-10-09T11:01:42;26.65;;;17.02;;
46415;SDS011;32620;51.704;7.822;2023-10-09T11:04:28;31.63;;;17.67;;
46415;SDS011;32620;51.704;7.822;2023-10-09T11:07:08;33.17;;;19.13;;
46415;SDS011;32620;51.704;7.822;2023-10-09T11:10:06;26.35;;;17.05;;
46415;SDS011;32620;51.704;7.822;2023-10-09T11:12:45;31.20;;;18.02;;
46415;SDS011;32620;51.704;7.822;2023-10-09T11:15:31;28.65;;;17.65;;
46415;SDS011;32620;51.704;7.822;2023-10-09T11:18:17;34.22;;;19.13;;
46415;SDS011;32620;51.704;7.822;2023-10-09T11:20:48;34.97;;;18.88;;
46415;SDS011;32620;51.704;7.822;2023-10-09T11:23:34;35.08;;;18.70;;
46415;SDS011;32620;51.704;7.822;2023-10-09T11:26:05;32.67;;;18.38;;
46415;SDS011;32620;51.704;7.822;2023-10-09T11:28:46;33.33;;;18.25;;
46415;SDS011;32620;51.704;7.822;2023-10-09T11:32:03;31.70;;;18.85;;
46415;SDS011;32620;51.704;7.822;2023-10-09T11:34:30;28.42;;;17.65;;
46415;SDS011;32620;51.704;7.822;2023-10-09T11:37:01;35.97;;;18.58;;
46415;SDS011;32620;51.704;7.822;2023-10-09T11:39:28;29.80;;;18.35;;
46415;SDS011;32620;51.704;7.822;2023-10-09T11:42:02;29.73;;;17.67;;
46415;SDS011;32620;51.704;7.822;2023-10-09T11:44:34;30.58;;;17.75;;
46415;SDS011;32620;51.704;7.822;2023-10-09T11:47:00;28.50;;;17.23;;
46415;SDS011;32620;51.704;7.822;2023-10-09T11:49:48;27.25;;;17.20;;
46415;SDS011;32620;51.704;7.822;2023-10-09T11:52:21;28.20;;;17.20;;
46415;SDS011;32620;51.704;7.822;2023-10-09T11:55:03;29.05;;;16.50;;
46415;SDS011;32620;51.704;7.822;2023-10-09T11:57:31;29.65;;;17.27;;
46415;SDS011;32620;51.704;7.822;2023-10-09T11:59:59;30.98;;;16.80;;
46415;SDS011;32620;51.704;7.822;2023-10-09T12:02:26;29.30;;;18.00;;
46415;SDS011;32620;51.704;7.822;2023-10-09T12:04:52;28.70;;;16.65;;
46415;SDS011;32620;51.704;7.822;2023-10-09T12:07:21;28.42;;;16.98;;
46415;SDS011;32620;51.704;7.822;2023-10-09T12:09:47;28.23;;;16.77;;
46415;SDS011;32620;51.704;7.822;2023-10-09T12:12:13;29.98;;;16.50;;
46415;SDS011;32620;51.704;7.822;2023-10-09T12:14:39;27.13;;;16.55;;
46415;SDS011;32620;51.704;7.822;2023-10-09T12:17:09;28.77;;;16.65;;
46415;SDS011;32620;51.704;7.822;2023-10-09T12:19:35;26.67;;;15.80;;
46415;SDS011;32620;51.704;7.822;2023-10-09T12:22:02;27.13;;;15.25;;
46415;SDS011;32620;51.704;7.822;2023-10-09T12:24:30;30.77;;;15.55;;
46415;SDS011;32620;51.704;7.822;2023-10-09T12:26:56;27.17;;;16.02;;
46415;SDS011;32620;51.704;7.822;2023-10-09T12:29:22;28.75;;;15.75;;
46415;SDS011;32620;51.704;7.822;2023-10-09T12:31:49;30.45;;;16.13;;
46415;SDS011;32620;51.704;7.822;2023-10-09T12:34:23;29.23;;;15.48;;
46415;SDS011;32620;51.704;7.822;2023-10-09T12:36:51;22.35;;;14.75;;
46415;SDS011;32620;51.704;7.822;2023-10-09T12:39:17;27.95;;;16.52;;
46415;SDS011;32620;51.704;7.822;2023-10-09T12:41:44;29.65;;;16.13;;
46415;SDS011;32620;51.704;7.822;2023-10-09T12:44:10;28.77;;;16.40;;
46415;SDS011;32620;51.704;7.822;2023-10-09T12:46:40;27.10;;;14.65;;
46415;SDS011;32620;51.704;7.822;2023-10-09T12:49:07;27.80;;;15.38;;
46415;SDS011;32620;51.704;7.822;2023-10-09T12:51:33;30.40;;;14.98;;
46415;SDS011;32620;51.704;7.822;2023-10-09T12:53:59;27.33;;;15.15;;
46415;SDS011;32620;51.704;7.822;2023-10-09T12:56:27;25.58;;;15.43;;
46415;SDS011;32620;51.704;7.822;2023-10-09T12:59:08;22.90;;;13.98;;
46415;SDS011;32620;51.704;7.822;2023-10-09T13:01:40;24.88;;;14.65;;
46415;SDS011;32620;51.704;7.822;2023-10-09T13:04:08;26.00;;;15.23;;
46415;SDS011;32620;51.704;7.822;2023-10-09T13:06:36;22.98;;;14.45;;
46415;SDS011;32620;51.704;7.822;2023-10-09T13:09:08;28.05;;;14.32;;
46415;SDS011;32620;51.704;7.822;2023-10-09T13:11:34;27.38;;;14.77;;
46415;SDS011;32620;51.704;7.822;2023-10-09T13:14:02;25.67;;;14.23;;
46415;SDS011;32620;51.704;7.822;2023-10-09T13:16:41;25.65;;;14.80;;
46415;SDS011;32620;51.704;7.822;2023-10-09T13:19:07;26.85;;;14.95;;
46415;SDS011;32620;51.704;7.822;2023-10-09T13:21:34;24.08;;;14.20;;
46415;SDS011;32620;51.704;7.822;2023-10-09T13:24:05;27.02;;;15.02;;
46415;SDS011;32620;51.704;7.822;2023-10-09T13:26:37;23.90;;;15.25;;
46415;SDS011;32620;51.704;7.822;2023-10-09T13:29:03;26.60;;;15.05;;
46415;SDS011;32620;51.704;7.822;2023-10-09T13:31:34;29.75;;;15.95;;
46415;SDS011;32620;51.704;7.822;2023-10-09T13:34:03;30.55;;;15.20;;
46415;SDS011;32620;51.704;7.822;2023-10-09T13:36:31;27.42;;;15.25;;
46415;SDS011;32620;51.704;7.822;2023-10-09T13:39:01;31.20;;;16.10;;
46415;SDS011;32620;51.704;7.822;2023-10-09T13:41:47;28.92;;;15.10;;
46415;SDS011;32620;51.704;7.822;2023-10-09T13:44:13;24.80;;;15.55;;
46415;SDS011;32620;51.704;7.822;2023-10-09T13:46:39;25.88;;;15.82;;
46415;SDS011;32620;51.704;7.822;2023-10-09T13:49:07;30.95;;;16.02;;
46415;SDS011;32620;51.704;7.822;2023-10-09T13:51:38;32.92;;;15.70;;
46415;SDS011;32620;51.704;7.822;2023-10-09T13:54:09;27.77;;;15.55;;
46415;SDS011;32620;51.704;7.822;2023-10-09T13:56:35;25.20;;;16.00;;
46415;SDS011;32620;51.704;7.822;2023-10-09T13:59:04;26.83;;;15.15;;
46415;SDS011;32620;51.704;7.822;2023-10-09T14:01:36;29.17;;;16.85;;
46415;SDS011;32620;51.704;7.822;2023-10-09T14:04:04;31.75;;;14.85;;
46415;SDS011;32620;51.704;7.822;2023-10-09T14:06:32;30.52;;;14.82;;
46415;SDS011;32620;51.704;7.822;2023-10-09T14:08:59;31.73;;;15.85;;
46415;SDS011;32620;51.704;7.822;2023-10-09T14:11:29;26.15;;;15.75;;
46415;SDS011;32620;51.704;7.822;2023-10-09T14:13:55;30.75;;;15.30;;
46415;SDS011;32620;51.704;7.822;2023-10-09T14:16:21;29.08;;;15.45;;
46415;SDS011;32620;51.704;7.822;2023-10-09T14:18:54;27.48;;;16.55;;
46415;SDS011;32620;51.704;7.822;2023-10-09T14:21:23;34.85;;;16.40;;
46415;SDS011;32620;51.704;7.822;2023-10-09T14:23:51;30.50;;;15.98;;
46415;SDS011;32620;51.704;7.822;2023-10-09T14:26:20;27.70;;;15.70;;
46415;SDS011;32620;51.704;7.822;2023-10-09T14:28:47;23.75;;;15.15;;
46415;SDS011;32620;51.704;7.822;2023-10-09T14:31:13;27.88;;;15.27;;
46415;SDS011;32620;51.704;7.822;2023-10-09T14:33:45;26.92;;;15.35;;
46415;SDS011;32620;51.704;7.822;2023-10-09T14:36:16;35.00;;;16.80;;
46415;SDS011;32620;51.704;7.822;2023-10-09T14:38:43;28.27;;;16.30;;
46415;SDS011;32620;51.704;7.822;2023-10-09T14:41:11;27.55;;;17.30;;
46415;SDS011;32620;51.704;7.822;2023-10-09T14:43:38;35.80;;;17.70;;
46415;SDS011;32620;51.704;7.822;2023-10-09T14:46:04;31.42;;;17.42;;
46415;SDS011;32620;51.704;7.822;2023-10-09T14:48:35;31.17;;;17.98;;
46415;SDS011;32620;51.704;7.822;2023-10-09T14:51:02;28.65;;;17.55;;
46415;SDS011;32620;51.704;7.822;2023-10-09T14:53:32;32.15;;;17.75;;
46415;SDS011;32620;51.704;7.822;2023-10-09T14:55:59;34.45;;;18.02;;
46415;SDS011;32620;51.704;7.822;2023-10-09T14:58:26;31.20;;;19.38;;
46415;SDS011;32620;51.704;7.822;2023-10-09T15:00:54;33.83;;;18.00;;
46415;SDS011;32620;51.704;7.822;2023-10-09T15:03:20;32.97;;;18.35;;